sensor_id;sensor_type;location;lat;lon;timestamp;temperature;humidity
4643;DHT22;2334;48.710;9.622;2023-09-30T00:00:06;15.60;99.90
4643;DHT22;2334;48.710;9.622;2023-09-30T00:02:34;15.70;99.90
4643;DHT22;2334;48.710;9.622;2023-09-30T00:05:02;15.70;99.90
4643;DHT22;2334;48.710;9.622;2023-09-30T00:07:29;15.70;99.90
4643;DHT22;2334;48.710;9.622;2023-09-30T00:09:56;15.70;99.90
4643;DHT22;2334;48.710;9.622;2023-09-30T00:12:23;15.70;99.90
4643;DHT22;2334;48.710;9.622;2023-09-30T00:14:50;15.60;99.90
4643;DHT22;2334;48.710;9.622;2023-09-30T00:17:17;15.50;99.90
4643;DHT22;2334;48.710;9.622;2023-09-30T00:19:44;15.50;99.90
4643;DHT22;2334;48.710;9.622;2023-09-30T00:22:12;15.50;99.90
4643;DHT22;2334;48.710;9.622;2023-09-30T00:24:39;15.40;99.90
4643;DHT22;2334;48.710;9.622;2023-09-30T00:27:06;15.30;99.90
4643;DHT22;2334;48.710;9.622;2023-09-30T00:29:33;15.30;99.90
4643;DHT22;2334;48.710;9.622;2023-09-30T00:32:01;15.20;99.90
4643;DHT22;2334;48.710;9.622;2023-09-30T00:34:29;15.20;99.90
4643;DHT22;2334;48.710;9.622;2023-09-30T00:36:58;15.20;99.90
4643;DHT22;2334;48.710;9.622;2023-09-30T00:39:26;15.30;99.90
4643;DHT22;2334;48.710;9.622;2023-09-30T00:41:55;15.30;99.90
4643;DHT22;2334;48.710;9.622;2023-09-30T00:44:24;15.40;99.90
4643;DHT22;2334;48.710;9.622;2023-09-30T00:46:50;15.40;99.90
4643;DHT22;2334;48.710;9.622;2023-09-30T00:49:17;15.50;99.90
4643;DHT22;2334;48.710;9.622;2023-09-30T00:51:45;15.50;99.90
4643;DHT22;2334;48.710;9.622;2023-09-30T00:54:12;15.40;99.90
4643;DHT22;2334;48.710;9.622;2023-09-30T00:56:44;15.40;99.90
4643;DHT22;2334;48.710;9.622;2023-09-30T00:59:11;15.50;99.90
4643;DHT22;2334;48.710;9.622;2023-09-30T01:01:39;15.50;99.90
4643;DHT22;2334;48.710;9.622;2023-09-30T01:04:06;15.50;99.90
4643;DHT22;2334;48.710;9.622;2023-09-30T01:06:33;15.50;99.90
4643;DHT22;2334;48.710;9.622;2023-09-30T01:09:00;15.50;99.90
4643;DHT22;2334;48.710;9.622;2023-09-30T01:11:28;15.50;99.90
4643;DHT22;2334;48.710;9.622;2023-09-30T01:13:57;15.60;99.90
4643;DHT22;2334;48.710;9.622;2023-09-30T01:16:24;15.60;99.90
4643;DHT22;2334;48.710;9.622;2023-09-30T01:18:51;15.60;99.90
4643;DHT22;2334;48.710;9.622;2023-09-30T01:21:18;15.60;99.90
4643;DHT22;2334;48.710;9.622;2023-09-30T01:23:48;15.60;99.90
4643;DHT22;2334;48.710;9.622;2023-09-30T01:26:14;15.50;99.90
4643;DHT22;2334;48.710;9.622;2023-09-30T01:28:41;15.50;99.90
4643;DHT22;2334;48.710;9.622;2023-09-30T01:31:09;15.50;99.90
4643;DHT22;2334;48.710;9.622;2023-09-30T01:33:36;15.50;99.90
4643;DHT22;2334;48.710;9.622;2023-09-30T01:36:04;15.50;99.90
4643;DHT22;2334;48.710;9.622;2023-09-30T01:38:31;15.50;99.90
4643;DHT22;2334;48.710;9.622;2023-09-30T01:40:59;15.40;99.90
4643;DHT22;2334;48.710;9.622;2023-09-30T01:43:26;15.30;99.90
4643;DHT22;2334;48.710;9.622;2023-09-30T01:45:53;15.20;99.90
4643;DHT22;2334;48.710;9.622;2023-09-30T01:48:20;15.30;99.90
4643;DHT22;2334;48.710;9.622;2023-09-30T01:50:47;15.30;99.90
4643;DHT22;2334;48.710;9.622;2023-09-30T01:53:14;15.30;99.90
4643;DHT22;2334;48.710;9.622;2023-09-30T01:55:41;15.30;99.90
4643;DHT22;2334;48.710;9.622;2023-09-30T01:58:09;15.30;99.90
4643;DHT22;2334;48.710;9.622;2023-09-30T02:00:37;15.20;99.90
4643;DHT22;2334;48.710;9.622;2023-09-30T02:03:04;15.10;99.90
4643;DHT22;2334;48.710;9.622;2023-09-30T02:05:30;15.00;99.90
4643;DHT22;2334;48.710;9.622;2023-09-30T02:07:58;15.00;99.90
4643;DHT22;2334;48.710;9.622;2023-09-30T02:10:25;15.10;99.90
4643;DHT22;2334;48.710;9.622;2023-09-30T02:12:52;15.10;99.90
4643;DHT22;2334;48.710;9.622;2023-09-30T02:15:20;15.30;99.90
4643;DHT22;2334;48.710;9.622;2023-09-30T02:17:47;15.30;99.90
4643;DHT22;2334;48.710;9.622;2023-09-30T02:20:14;15.30;99.90
4643;DHT22;2334;48.710;9.622;2023-09-30T02:22:45;15.30;99.90
4643;DHT22;2334;48.710;9.622;2023-09-30T02:25:13;15.30;99.90
4643;DHT22;2334;48.710;9.622;2023-09-30T02:27:41;15.20;99.90
4643;DHT22;2334;48.710;9.622;2023-09-30T02:30:10;15.20;99.90
4643;DHT22;2334;48.710;9.622;2023-09-30T02:32:39;15.20;99.90
4643;DHT22;2334;48.710;9.622;2023-09-30T02:35:07;15.30;99.90
4643;DHT22;2334;48.710;9.622;2023-09-30T02:37:36;15.30;99.90
4643;DHT22;2334;48.710;9.622;2023-09-30T02:40:04;15.30;99.90
4643;DHT22;2334;48.710;9.622;2023-09-30T02:42:35;15.30;99.90
4643;DHT22;2334;48.710;9.622;2023-09-30T02:45:02;15.30;99.90
4643;DHT22;2334;48.710;9.622;2023-09-30T02:47:29;15.40;99.90
4643;DHT22;2334;48.710;9.622;2023-09-30T02:49:58;15.30;99.90
4643;DHT22;2334;48.710;9.622;2023-09-30T02:52:25;15.30;99.90
4643;DHT22;2334;48.710;9.622;2023-09-30T02:54:54;15.20;99.90
4643;DHT22;2334;48.710;9.622;2023-09-30T02:57:22;15.10;99.90
4643;DHT22;2334;48.710;9.622;2023-09-30T02:59:49;15.10;99.90
4643;DHT22;2334;48.710;9.622;2023-09-30T03:02:17;15.10;99.90
4643;DHT22;2334;48.710;9.622;2023-09-30T03:04:44;15.00;99.90
4643;DHT22;2334;48.710;9.622;2023-09-30T03:07:13;15.00;99.90
4643;DHT22;2334;48.710;9.622;2023-09-30T03:09:40;15.10;99.90
4643;DHT22;2334;48.710;9.622;2023-09-30T03:12:07;15.30;99.90
4643;DHT22;2334;48.710;9.622;2023-09-30T03:14:35;15.20;99.90
4643;DHT22;2334;48.710;9.622;2023-09-30T03:17:01;15.30;99.90
4643;DHT22;2334;48.710;9.622;2023-09-30T03:19:29;15.20;99.90
4643;DHT22;2334;48.710;9.622;2023-09-30T03:21:55;15.10;99.90
4643;DHT22;2334;48.710;9.622;2023-09-30T03:24:24;15.10;99.90
4643;DHT22;2334;48.710;9.622;2023-09-30T03:26:52;15.20;99.90
4643;DHT22;2334;48.710;9.622;2023-09-30T03:29:19;15.20;99.90
4643;DHT22;2334;48.710;9.622;2023-09-30T03:31:46;15.30;99.90
4643;DHT22;2334;48.710;9.622;2023-09-30T03:34:13;15.30;99.90
4643;DHT22;2334;48.710;9.622;2023-09-30T03:36:41;15.40;99.90
4643;DHT22;2334;48.710;9.622;2023-09-30T03:39:08;15.40;99.90
4643;DHT22;2334;48.710;9.622;2023-09-30T03:41:41;15.40;99.90
4643;DHT22;2334;48.710;9.622;2023-09-30T03:44:08;15.40;99.90
4643;DHT22;2334;48.710;9.622;2023-09-30T03:46:35;15.40;99.90
4643;DHT22;2334;48.710;9.622;2023-09-30T03:49:02;15.40;99.90
4643;DHT22;2334;48.710;9.622;2023-09-30T03:51:29;15.50;99.90
4643;DHT22;2334;48.710;9.622;2023-09-30T03:53:56;15.50;99.90
4643;DHT22;2334;48.710;9.622;2023-09-30T03:56:23;15.50;99.90
4643;DHT22;2334;48.710;9.622;2023-09-30T03:58:52;15.60;99.90
4643;DHT22;2334;48.710;9.622;2023-09-30T04:01:19;15.60;99.90
4643;DHT22;2334;48.710;9.622;2023-09-30T04:03:46;15.60;99.90
4643;DHT22;2334;48.710;9.622;2023-09-30T04:06:13;15.60;99.90
4643;DHT22;2334;48.710;9.622;2023-09-30T04:08:40;15.60;99.90
4643;DHT22;2334;48.710;9.622;2023-09-30T04:11:09;15.60;99.90
4643;DHT22;2334;48.710;9.622;2023-09-30T04:13:42;15.60;99.90
4643;DHT22;2334;48.710;9.622;2023-09-30T04:16:10;15.60;99.90
4643;DHT22;2334;48.710;9.622;2023-09-30T04:18:37;15.60;99.90
4643;DHT22;2334;48.710;9.622;2023-09-30T04:21:06;15.60;99.90
4643;DHT22;2334;48.710;9.622;2023-09-30T04:23:33;15.50;99.90
4643;DHT22;2334;48.710;9.622;2023-09-30T04:26:02;15.40;99.90
4643;DHT22;2334;48.710;9.622;2023-09-30T04:28:29;15.50;99.90
4643;DHT22;2334;48.710;9.622;2023-09-30T04:30:56;15.60;99.90
4643;DHT22;2334;48.710;9.622;2023-09-30T04:33:25;15.60;99.90
4643;DHT22;2334;48.710;9.622;2023-09-30T04:35:52;15.70;99.90
4643;DHT22;2334;48.710;9.622;2023-09-30T04:38:19;15.70;99.90
4643;DHT22;2334;48.710;9.622;2023-09-30T04:40:46;15.70;99.90
4643;DHT22;2334;48.710;9.622;2023-09-30T04:43:17;15.70;99.90
4643;DHT22;2334;48.710;9.622;2023-09-30T04:45:44;15.70;99.90
4643;DHT22;2334;48.710;9.622;2023-09-30T04:48:12;15.70;99.90
4643;DHT22;2334;48.710;9.622;2023-09-30T04:50:40;15.70;99.90
4643;DHT22;2334;48.710;9.622;2023-09-30T04:53:07;15.60;99.90
4643;DHT22;2334;48.710;9.622;2023-09-30T04:55:35;15.60;99.90
4643;DHT22;2334;48.710;9.622;2023-09-30T04:58:03;15.70;99.90
4643;DHT22;2334;48.710;9.622;2023-09-30T05:00:31;15.70;99.90
4643;DHT22;2334;48.710;9.622;2023-09-30T05:02:58;15.70;99.90
4643;DHT22;2334;48.710;9.622;2023-09-30T05:05:25;15.80;99.90
4643;DHT22;2334;48.710;9.622;2023-09-30T05:07:55;15.80;99.90
4643;DHT22;2334;48.710;9.622;2023-09-30T05:10:23;15.80;99.90
4643;DHT22;2334;48.710;9.622;2023-09-30T05:12:50;15.80;99.90
4643;DHT22;2334;48.710;9.622;2023-09-30T05:15:21;15.80;99.90
4643;DHT22;2334;48.710;9.622;2023-09-30T05:17:48;15.80;99.90
4643;DHT22;2334;48.710;9.622;2023-09-30T05:20:16;15.80;99.90
4643;DHT22;2334;48.710;9.622;2023-09-30T05:22:44;15.80;99.90
4643;DHT22;2334;48.710;9.622;2023-09-30T05:25:13;15.80;99.90
4643;DHT22;2334;48.710;9.622;2023-09-30T05:27:41;15.80;99.90
4643;DHT22;2334;48.710;9.622;2023-09-30T05:30:09;15.80;99.90
4643;DHT22;2334;48.710;9.622;2023-09-30T05:32:38;15.80;99.90
4643;DHT22;2334;48.710;9.622;2023-09-30T05:35:06;15.80;99.90
4643;DHT22;2334;48.710;9.622;2023-09-30T05:37:39;15.80;99.90
4643;DHT22;2334;48.710;9.622;2023-09-30T05:40:06;15.70;99.90
4643;DHT22;2334;48.710;9.622;2023-09-30T05:42:44;15.80;99.90
4643;DHT22;2334;48.710;9.622;2023-09-30T05:45:11;15.80;99.90
4643;DHT22;2334;48.710;9.622;2023-09-30T05:47:39;15.70;99.90
4643;DHT22;2334;48.710;9.622;2023-09-30T05:50:07;15.70;99.90
4643;DHT22;2334;48.710;9.622;2023-09-30T05:52:35;15.70;99.90
4643;DHT22;2334;48.710;9.622;2023-09-30T05:55:03;15.80;99.90
4643;DHT22;2334;48.710;9.622;2023-09-30T05:57:30;15.80;99.90
4643;DHT22;2334;48.710;9.622;2023-09-30T05:59:58;15.70;99.90
4643;DHT22;2334;48.710;9.622;2023-09-30T06:02:25;15.70;99.90
4643;DHT22;2334;48.710;9.622;2023-09-30T06:04:52;15.70;99.90
4643;DHT22;2334;48.710;9.622;2023-09-30T06:07:20;15.70;99.90
4643;DHT22;2334;48.710;9.622;2023-09-30T06:09:47;15.60;99.90
4643;DHT22;2334;48.710;9.622;2023-09-30T06:12:15;15.60;99.90
4643;DHT22;2334;48.710;9.622;2023-09-30T06:14:42;15.60;99.90
4643;DHT22;2334;48.710;9.622;2023-09-30T06:17:10;15.70;99.90
4643;DHT22;2334;48.710;9.622;2023-09-30T06:19:37;15.80;99.90
4643;DHT22;2334;48.710;9.622;2023-09-30T06:22:04;15.70;99.90
4643;DHT22;2334;48.710;9.622;2023-09-30T06:24:31;15.70;99.90
4643;DHT22;2334;48.710;9.622;2023-09-30T06:26:58;15.70;99.90
4643;DHT22;2334;48.710;9.622;2023-09-30T06:29:24;15.70;99.90
4643;DHT22;2334;48.710;9.622;2023-09-30T06:31:52;15.70;99.90
4643;DHT22;2334;48.710;9.622;2023-09-30T06:34:20;15.80;99.90
4643;DHT22;2334;48.710;9.622;2023-09-30T06:36:47;15.80;99.90
4643;DHT22;2334;48.710;9.622;2023-09-30T06:39:15;15.90;99.90
4643;DHT22;2334;48.710;9.622;2023-09-30T06:41:41;15.90;99.90
4643;DHT22;2334;48.710;9.622;2023-09-30T06:44:09;16.00;99.90
4643;DHT22;2334;48.710;9.622;2023-09-30T06:46:36;15.90;99.90
4643;DHT22;2334;48.710;9.622;2023-09-30T06:49:03;15.90;99.90
4643;DHT22;2334;48.710;9.622;2023-09-30T06:51:31;15.90;99.90
4643;DHT22;2334;48.710;9.622;2023-09-30T06:53:58;15.90;99.90
4643;DHT22;2334;48.710;9.622;2023-09-30T06:56:26;15.90;99.90
4643;DHT22;2334;48.710;9.622;2023-09-30T06:58:53;15.90;99.90
4643;DHT22;2334;48.710;9.622;2023-09-30T07:01:20;15.90;99.90
4643;DHT22;2334;48.710;9.622;2023-09-30T07:03:47;16.00;99.90
4643;DHT22;2334;48.710;9.622;2023-09-30T07:06:22;16.20;99.90
4643;DHT22;2334;48.710;9.622;2023-09-30T07:08:50;16.30;99.90
4643;DHT22;2334;48.710;9.622;2023-09-30T07:11:26;16.40;99.90
4643;DHT22;2334;48.710;9.622;2023-09-30T07:13:53;16.30;99.90
4643;DHT22;2334;48.710;9.622;2023-09-30T07:16:20;16.30;99.90
4643;DHT22;2334;48.710;9.622;2023-09-30T07:18:47;16.40;99.90
4643;DHT22;2334;48.710;9.622;2023-09-30T07:21:14;16.40;99.90
4643;DHT22;2334;48.710;9.622;2023-09-30T07:23:41;16.40;99.90
4643;DHT22;2334;48.710;9.622;2023-09-30T07:26:09;16.40;99.90
4643;DHT22;2334;48.710;9.622;2023-09-30T07:28:36;16.50;99.90
4643;DHT22;2334;48.710;9.622;2023-09-30T07:31:03;16.50;99.90
4643;DHT22;2334;48.710;9.622;2023-09-30T07:33:29;16.40;99.90
4643;DHT22;2334;48.710;9.622;2023-09-30T07:35:56;16.60;99.90
4643;DHT22;2334;48.710;9.622;2023-09-30T07:38:23;16.70;99.90
4643;DHT22;2334;48.710;9.622;2023-09-30T07:40:50;16.80;99.90
4643;DHT22;2334;48.710;9.622;2023-09-30T07:43:18;16.80;99.90
4643;DHT22;2334;48.710;9.622;2023-09-30T07:45:46;17.00;99.90
4643;DHT22;2334;48.710;9.622;2023-09-30T07:48:12;16.90;99.90
4643;DHT22;2334;48.710;9.622;2023-09-30T07:50:39;17.00;99.90
4643;DHT22;2334;48.710;9.622;2023-09-30T07:53:08;17.00;99.90
4643;DHT22;2334;48.710;9.622;2023-09-30T07:55:35;17.30;99.90
4643;DHT22;2334;48.710;9.622;2023-09-30T07:58:02;17.40;99.90
4643;DHT22;2334;48.710;9.622;2023-09-30T08:00:30;17.60;99.90
4643;DHT22;2334;48.710;9.622;2023-09-30T08:02:59;17.80;99.90
4643;DHT22;2334;48.710;9.622;2023-09-30T08:05:26;17.80;99.90
4643;DHT22;2334;48.710;9.622;2023-09-30T08:07:57;17.90;99.90
4643;DHT22;2334;48.710;9.622;2023-09-30T08:10:24;17.80;99.90
4643;DHT22;2334;48.710;9.622;2023-09-30T08:12:50;18.10;99.90
4643;DHT22;2334;48.710;9.622;2023-09-30T08:15:18;18.50;99.90
4643;DHT22;2334;48.710;9.622;2023-09-30T08:17:46;18.40;99.90
4643;DHT22;2334;48.710;9.622;2023-09-30T08:20:13;18.60;99.90
4643;DHT22;2334;48.710;9.622;2023-09-30T08:22:40;18.80;99.90
4643;DHT22;2334;48.710;9.622;2023-09-30T08:25:08;18.90;99.90
4643;DHT22;2334;48.710;9.622;2023-09-30T08:27:36;19.00;99.90
4643;DHT22;2334;48.710;9.622;2023-09-30T08:30:04;18.90;99.90
4643;DHT22;2334;48.710;9.622;2023-09-30T08:32:32;18.60;99.90
4643;DHT22;2334;48.710;9.622;2023-09-30T08:35:01;18.80;99.90
4643;DHT22;2334;48.710;9.622;2023-09-30T08:37:28;18.90;99.90
4643;DHT22;2334;48.710;9.622;2023-09-30T08:39:55;19.10;99.90
4643;DHT22;2334;48.710;9.622;2023-09-30T08:42:22;19.30;99.90
4643;DHT22;2334;48.710;9.622;2023-09-30T08:44:52;19.30;99.90
4643;DHT22;2334;48.710;9.622;2023-09-30T08:47:20;19.50;99.90
4643;DHT22;2334;48.710;9.622;2023-09-30T08:49:48;19.20;99.90
4643;DHT22;2334;48.710;9.622;2023-09-30T08:52:22;19.30;99.90
4643;DHT22;2334;48.710;9.622;2023-09-30T08:54:49;19.50;99.90
4643;DHT22;2334;48.710;9.622;2023-09-30T08:57:19;19.70;99.90
4643;DHT22;2334;48.710;9.622;2023-09-30T08:59:46;19.70;99.90
4643;DHT22;2334;48.710;9.622;2023-09-30T09:02:15;19.80;99.90
4643;DHT22;2334;48.710;9.622;2023-09-30T09:04:42;19.40;99.90
4643;DHT22;2334;48.710;9.622;2023-09-30T09:07:10;19.30;99.90
4643;DHT22;2334;48.710;9.622;2023-09-30T09:09:38;19.60;99.90
4643;DHT22;2334;48.710;9.622;2023-09-30T09:12:06;19.90;99.90
4643;DHT22;2334;48.710;9.622;2023-09-30T09:14:38;19.80;99.90
4643;DHT22;2334;48.710;9.622;2023-09-30T09:17:07;19.10;99.90
4643;DHT22;2334;48.710;9.622;2023-09-30T09:19:34;19.60;99.90
4643;DHT22;2334;48.710;9.622;2023-09-30T09:22:03;19.40;99.90
4643;DHT22;2334;48.710;9.622;2023-09-30T09:24:33;19.80;99.90
4643;DHT22;2334;48.710;9.622;2023-09-30T09:27:09;20.00;99.90
4643;DHT22;2334;48.710;9.622;2023-09-30T09:29:37;20.20;99.90
4643;DHT22;2334;48.710;9.622;2023-09-30T09:32:09;20.00;99.90
4643;DHT22;2334;48.710;9.622;2023-09-30T09:34:36;19.90;99.90
4643;DHT22;2334;48.710;9.622;2023-09-30T09:37:13;19.90;99.90
4643;DHT22;2334;48.710;9.622;2023-09-30T09:39:40;20.20;99.90
4643;DHT22;2334;48.710;9.622;2023-09-30T09:42:24;20.60;99.90
4643;DHT22;2334;48.710;9.622;2023-09-30T09:44:52;21.20;99.90
4643;DHT22;2334;48.710;9.622;2023-09-30T09:47:38;21.50;99.90
4643;DHT22;2334;48.710;9.622;2023-09-30T09:50:06;21.70;99.90
4643;DHT22;2334;48.710;9.622;2023-09-30T09:52:34;21.70;99.90
4643;DHT22;2334;48.710;9.622;2023-09-30T09:55:02;21.60;99.90
4643;DHT22;2334;48.710;9.622;2023-09-30T09:57:32;21.40;99.90
4643;DHT22;2334;48.710;9.622;2023-09-30T10:00:01;21.20;99.90
4643;DHT22;2334;48.710;9.622;2023-09-30T10:02:39;20.90;99.90
4643;DHT22;2334;48.710;9.622;2023-09-30T10:05:07;20.70;99.90
4643;DHT22;2334;48.710;9.622;2023-09-30T10:07:40;20.60;99.90
4643;DHT22;2334;48.710;9.622;2023-09-30T10:10:12;20.40;99.90
4643;DHT22;2334;48.710;9.622;2023-09-30T10:12:42;20.20;99.90
4643;DHT22;2334;48.710;9.622;2023-09-30T10:15:37;20.00;99.90
4643;DHT22;2334;48.710;9.622;2023-09-30T10:18:07;20.00;99.90
4643;DHT22;2334;48.710;9.622;2023-09-30T10:20:37;20.00;99.90
4643;DHT22;2334;48.710;9.622;2023-09-30T10:23:25;19.80;99.90
4643;DHT22;2334;48.710;9.622;2023-09-30T10:25:53;19.80;99.90
4643;DHT22;2334;48.710;9.622;2023-09-30T10:28:38;19.90;99.90
4643;DHT22;2334;48.710;9.622;2023-09-30T10:31:10;19.90;99.90
4643;DHT22;2334;48.710;9.622;2023-09-30T10:36:46;19.70;99.90
4643;DHT22;2334;48.710;9.622;2023-09-30T10:42:46;19.50;99.90
4643;DHT22;2334;48.710;9.622;2023-09-30T10:45:44;20.10;99.90
4643;DHT22;2334;48.710;9.622;2023-09-30T10:48:34;20.90;99.90
4643;DHT22;2334;48.710;9.622;2023-09-30T10:51:13;21.40;99.90
4643;DHT22;2334;48.710;9.622;2023-09-30T10:53:43;21.60;99.90
4643;DHT22;2334;48.710;9.622;2023-09-30T10:56:11;21.50;99.90
4643;DHT22;2334;48.710;9.622;2023-09-30T10:58:41;21.70;99.90
4643;DHT22;2334;48.710;9.622;2023-09-30T11:01:09;21.90;99.90
4643;DHT22;2334;48.710;9.622;2023-09-30T11:03:37;22.60;99.90
4643;DHT22;2334;48.710;9.622;2023-09-30T11:06:04;22.90;99.90
4643;DHT22;2334;48.710;9.622;2023-09-30T11:08:32;23.40;99.90
4643;DHT22;2334;48.710;9.622;2023-09-30T11:11:00;23.30;99.90
4643;DHT22;2334;48.710;9.622;2023-09-30T11:13:32;23.30;99.90
4643;DHT22;2334;48.710;9.622;2023-09-30T11:16:01;23.20;99.90
4643;DHT22;2334;48.710;9.622;2023-09-30T11:18:32;23.20;99.90
4643;DHT22;2334;48.710;9.622;2023-09-30T11:21:06;23.40;99.90
4643;DHT22;2334;48.710;9.622;2023-09-30T11:23:35;23.70;99.90
4643;DHT22;2334;48.710;9.622;2023-09-30T11:26:02;23.70;99.90
4643;DHT22;2334;48.710;9.622;2023-09-30T11:28:38;24.00;99.90
4643;DHT22;2334;48.710;9.622;2023-09-30T11:31:08;23.90;99.90
4643;DHT22;2334;48.710;9.622;2023-09-30T11:33:52;23.90;99.90
4643;DHT22;2334;48.710;9.622;2023-09-30T11:36:21;23.90;99.90
4643;DHT22;2334;48.710;9.622;2023-09-30T11:38:49;23.70;99.90
4643;DHT22;2334;48.710;9.622;2023-09-30T11:41:18;23.40;99.90
4643;DHT22;2334;48.710;9.622;2023-09-30T11:44:03;23.10;99.90
4643;DHT22;2334;48.710;9.622;2023-09-30T11:46:47;23.10;99.90
4643;DHT22;2334;48.710;9.622;2023-09-30T11:49:25;23.20;99.90
4643;DHT22;2334;48.710;9.622;2023-09-30T11:51:52;22.90;99.90
4643;DHT22;2334;48.710;9.622;2023-09-30T11:54:19;22.80;99.90
4643;DHT22;2334;48.710;9.622;2023-09-30T11:56:47;22.50;99.90
4643;DHT22;2334;48.710;9.622;2023-09-30T11:59:16;22.50;99.90
4643;DHT22;2334;48.710;9.622;2023-09-30T12:01:45;22.50;99.90
4643;DHT22;2334;48.710;9.622;2023-09-30T12:04:14;22.50;99.90
4643;DHT22;2334;48.710;9.622;2023-09-30T12:06:44;22.60;99.90
4643;DHT22;2334;48.710;9.622;2023-09-30T12:09:11;22.70;99.90
4643;DHT22;2334;48.710;9.622;2023-09-30T12:11:40;23.20;99.90
4643;DHT22;2334;48.710;9.622;2023-09-30T12:14:09;23.60;99.90
4643;DHT22;2334;48.710;9.622;2023-09-30T12:16:36;23.60;99.90
4643;DHT22;2334;48.710;9.622;2023-09-30T12:19:03;23.90;99.90
4643;DHT22;2334;48.710;9.622;2023-09-30T12:21:31;24.20;99.90
4643;DHT22;2334;48.710;9.622;2023-09-30T12:24:01;23.80;99.90
4643;DHT22;2334;48.710;9.622;2023-09-30T12:26:28;24.00;99.90
4643;DHT22;2334;48.710;9.622;2023-09-30T12:28:55;23.90;99.90
4643;DHT22;2334;48.710;9.622;2023-09-30T12:31:22;24.10;99.90
4643;DHT22;2334;48.710;9.622;2023-09-30T12:33:49;23.80;99.90
4643;DHT22;2334;48.710;9.622;2023-09-30T12:36:18;23.40;99.90
4643;DHT22;2334;48.710;9.622;2023-09-30T12:38:44;23.40;99.90
4643;DHT22;2334;48.710;9.622;2023-09-30T12:41:13;23.50;99.90
4643;DHT22;2334;48.710;9.622;2023-09-30T12:43:40;23.30;99.90
4643;DHT22;2334;48.710;9.622;2023-09-30T12:46:08;23.30;99.90
4643;DHT22;2334;48.710;9.622;2023-09-30T12:48:35;23.40;99.90
4643;DHT22;2334;48.710;9.622;2023-09-30T12:51:04;23.60;99.90
4643;DHT22;2334;48.710;9.622;2023-09-30T12:53:32;23.50;99.90
4643;DHT22;2334;48.710;9.622;2023-09-30T12:55:59;23.10;99.90
4643;DHT22;2334;48.710;9.622;2023-09-30T12:58:27;22.90;99.90
4643;DHT22;2334;48.710;9.622;2023-09-30T13:00:55;22.70;99.90
4643;DHT22;2334;48.710;9.622;2023-09-30T13:03:22;22.70;99.90
4643;DHT22;2334;48.710;9.622;2023-09-30T13:05:49;22.80;99.90
4643;DHT22;2334;48.710;9.622;2023-09-30T13:08:16;22.90;99.90
4643;DHT22;2334;48.710;9.622;2023-09-30T13:10:43;22.90;99.90
4643;DHT22;2334;48.710;9.622;2023-09-30T13:13:11;22.90;99.90
4643;DHT22;2334;48.710;9.622;2023-09-30T13:15:39;23.00;99.90
4643;DHT22;2334;48.710;9.622;2023-09-30T13:18:06;22.80;99.90
4643;DHT22;2334;48.710;9.622;2023-09-30T13:20:33;23.00;99.90
4643;DHT22;2334;48.710;9.622;2023-09-30T13:23:00;22.90;99.90
4643;DHT22;2334;48.710;9.622;2023-09-30T13:25:28;22.60;99.90
4643;DHT22;2334;48.710;9.622;2023-09-30T13:27:55;22.70;99.90
4643;DHT22;2334;48.710;9.622;2023-09-30T13:30:22;22.70;99.90
4643;DHT22;2334;48.710;9.622;2023-09-30T13:32:50;22.70;99.90
4643;DHT22;2334;48.710;9.622;2023-09-30T13:35:17;22.60;99.90
4643;DHT22;2334;48.710;9.622;2023-09-30T13:37:44;22.80;99.90
4643;DHT22;2334;48.710;9.622;2023-09-30T13:40:12;22.80;99.90
4643;DHT22;2334;48.710;9.622;2023-09-30T13:42:39;22.70;99.90
4643;DHT22;2334;48.710;9.622;2023-09-30T13:45:09;22.50;99.90
4643;DHT22;2334;48.710;9.622;2023-09-30T13:47:36;22.40;99.90
4643;DHT22;2334;48.710;9.622;2023-09-30T13:50:06;22.40;99.90
4643;DHT22;2334;48.710;9.622;2023-09-30T13:52:34;22.40;99.90
4643;DHT22;2334;48.710;9.622;2023-09-30T13:55:00;22.30;99.90
4643;DHT22;2334;48.710;9.622;2023-09-30T13:57:28;22.30;99.90
4643;DHT22;2334;48.710;9.622;2023-09-30T13:59:56;22.40;99.90
4643;DHT22;2334;48.710;9.622;2023-09-30T14:02:22;22.30;99.90
4643;DHT22;2334;48.710;9.622;2023-09-30T14:04:49;22.60;99.90
4643;DHT22;2334;48.710;9.622;2023-09-30T14:07:18;22.60;99.90
4643;DHT22;2334;48.710;9.622;2023-09-30T14:09:45;22.50;99.90
4643;DHT22;2334;48.710;9.622;2023-09-30T14:12:12;22.60;99.90
4643;DHT22;2334;48.710;9.622;2023-09-30T14:14:38;22.50;99.90
4643;DHT22;2334;48.710;9.622;2023-09-30T14:17:05;22.40;99.90
4643;DHT22;2334;48.710;9.622;2023-09-30T14:19:37;22.50;99.90
4643;DHT22;2334;48.710;9.622;2023-09-30T14:22:04;22.50;99.90
4643;DHT22;2334;48.710;9.622;2023-09-30T14:24:34;22.40;99.90
4643;DHT22;2334;48.710;9.622;2023-09-30T14:27:01;22.30;99.90
4643;DHT22;2334;48.710;9.622;2023-09-30T14:29:28;22.20;99.90
4643;DHT22;2334;48.710;9.622;2023-09-30T14:31:55;22.20;99.90
4643;DHT22;2334;48.710;9.622;2023-09-30T14:34:23;22.30;99.90
4643;DHT22;2334;48.710;9.622;2023-09-30T14:36:50;22.20;99.90
4643;DHT22;2334;48.710;9.622;2023-09-30T14:39:17;22.10;99.90
4643;DHT22;2334;48.710;9.622;2023-09-30T14:41:45;22.20;99.90
4643;DHT22;2334;48.710;9.622;2023-09-30T14:44:12;22.20;99.90
4643;DHT22;2334;48.710;9.622;2023-09-30T14:46:39;22.20;99.90
4643;DHT22;2334;48.710;9.622;2023-09-30T14:49:06;22.00;99.90
4643;DHT22;2334;48.710;9.622;2023-09-30T14:51:33;22.00;99.90
4643;DHT22;2334;48.710;9.622;2023-09-30T14:54:00;22.00;99.90
4643;DHT22;2334;48.710;9.622;2023-09-30T14:56:28;21.90;99.90
4643;DHT22;2334;48.710;9.622;2023-09-30T14:58:56;21.80;99.90
4643;DHT22;2334;48.710;9.622;2023-09-30T15:01:23;21.70;99.90
4643;DHT22;2334;48.710;9.622;2023-09-30T15:03:51;21.60;99.90
4643;DHT22;2334;48.710;9.622;2023-09-30T15:06:18;21.60;99.90
4643;DHT22;2334;48.710;9.622;2023-09-30T15:08:46;21.60;99.90
4643;DHT22;2334;48.710;9.622;2023-09-30T15:11:14;21.70;99.90
4643;DHT22;2334;48.710;9.622;2023-09-30T15:13:41;21.80;99.90
4643;DHT22;2334;48.710;9.622;2023-09-30T15:16:26;21.90;99.90
4643;DHT22;2334;48.710;9.622;2023-09-30T15:18:54;21.90;99.90
4643;DHT22;2334;48.710;9.622;2023-09-30T15:21:20;22.10;99.90
4643;DHT22;2334;48.710;9.622;2023-09-30T15:23:47;22.40;99.90
4643;DHT22;2334;48.710;9.622;2023-09-30T15:26:14;22.60;99.90
4643;DHT22;2334;48.710;9.622;2023-09-30T15:28:42;22.80;99.90
4643;DHT22;2334;48.710;9.622;2023-09-30T15:31:10;22.60;99.90
4643;DHT22;2334;48.710;9.622;2023-09-30T15:33:38;22.30;99.90
4643;DHT22;2334;48.710;9.622;2023-09-30T15:36:11;22.40;99.90
4643;DHT22;2334;48.710;9.622;2023-09-30T15:38:39;22.40;99.90
4643;DHT22;2334;48.710;9.622;2023-09-30T15:41:06;22.30;99.90
4643;DHT22;2334;48.710;9.622;2023-09-30T15:43:33;22.10;99.90
4643;DHT22;2334;48.710;9.622;2023-09-30T15:46:01;22.10;99.90
4643;DHT22;2334;48.710;9.622;2023-09-30T15:48:28;21.90;99.90
4643;DHT22;2334;48.710;9.622;2023-09-30T15:50:57;21.90;99.90
4643;DHT22;2334;48.710;9.622;2023-09-30T15:53:24;21.70;99.90
4643;DHT22;2334;48.710;9.622;2023-09-30T15:55:51;21.50;99.90
4643;DHT22;2334;48.710;9.622;2023-09-30T15:58:18;21.40;99.90
4643;DHT22;2334;48.710;9.622;2023-09-30T16:00:45;21.40;99.90
4643;DHT22;2334;48.710;9.622;2023-09-30T16:03:13;21.30;99.90
4643;DHT22;2334;48.710;9.622;2023-09-30T16:05:40;21.30;99.90
4643;DHT22;2334;48.710;9.622;2023-09-30T16:08:09;21.10;99.90
4643;DHT22;2334;48.710;9.622;2023-09-30T16:10:36;21.10;99.90
4643;DHT22;2334;48.710;9.622;2023-09-30T16:13:04;21.10;99.90
4643;DHT22;2334;48.710;9.622;2023-09-30T16:15:32;21.00;99.90